Aviation Digital Data Service (ADDS)

Output produced by METARs form (1458 UTC 22 April 2019)
found at http://www.aviationweather.gov/metar/data/
 
Forecast for: VTUD (UDON THANI(CIV/A, TH)
Text: TAF VTUD 221100Z 2212/2312 13006KT 9000 FEW030
Forecast period: 1200 UTC 22 April 2019 to 1200 UTC 23 April 2019
Forecast type: FROM: standard forecast or significant change
Winds: from the SE (130 degrees) at 7 MPH (6 knots; 3.1 m/s)
Visibility: 6 miles (9 km)
Ceiling: at least 12,000 feet AGL
Clouds: few clouds at 3000 feet AGL
Weather: no significant weather forecast for this period
Text: TEMPO 2215/2220 VRB10G25KT 5000 TSRA FEW018CB BKN020 BKN080
Forecast period: 1500 to 2000 UTC 22 April 2019
Forecast type: TEMPORARY: The following changes expected for less than half the time period
Winds: variable direction winds at 12 MPH (10 knots; 5.1 m/s)
gusting to 29 MPH (25 knots; 12.9 m/s)
Visibility: 3 miles (5 km)
Ceiling: 2000 feet AGL
Clouds: few clouds at 1800 feet AGL
broken clouds at 2000 feet AGL
broken clouds at 8000 feet AGL
Weather: TSRA  (rain associated with thunderstorm(s))